createdAt,value
2023-04-15T00:01:12.123Z,7.62
2023-04-15T00:03:39.424Z,7.60
2023-04-15T00:06:06.959Z,7.56
2023-04-15T00:08:34.237Z,7.54
2023-04-15T00:11:03.384Z,7.50
2023-04-15T00:13:30.785Z,7.49
2023-04-15T00:15:58.165Z,7.48
2023-04-15T00:18:25.533Z,7.44
2023-04-15T00:20:52.596Z,7.42
2023-04-15T00:23:19.633Z,7.40
2023-04-15T00:25:47.077Z,7.40
2023-04-15T00:28:14.146Z,7.38
2023-04-15T00:30:41.685Z,7.37
2023-04-15T00:33:09.949Z,7.35
2023-04-15T00:35:37.482Z,7.33
2023-04-15T00:38:06.301Z,7.30
2023-04-15T00:40:33.516Z,7.28
2023-04-15T00:43:00.634Z,7.26
2023-04-15T00:45:31.049Z,7.21
2023-04-15T00:47:58.688Z,7.19
2023-04-15T00:50:25.693Z,7.15
2023-04-15T00:52:52.699Z,7.13
2023-04-15T00:55:19.747Z,7.11
2023-04-15T00:57:47.032Z,7.07
2023-04-15T01:00:23.653Z,7.02
2023-04-15T01:02:53.260Z,7.00
2023-04-15T01:05:20.559Z,6.95
2023-04-15T01:07:48.879Z,6.94
2023-04-15T01:10:16.156Z,6.90
2023-04-15T01:12:44.615Z,6.88
2023-04-15T01:15:11.783Z,6.84
2023-04-15T01:17:39.893Z,6.81
2023-04-15T01:20:12.205Z,6.81
2023-04-15T01:22:40.700Z,6.79
2023-04-15T01:25:19.750Z,6.78
2023-04-15T01:27:47.665Z,6.76
2023-04-15T01:30:15.575Z,6.77
2023-04-15T01:32:42.688Z,6.74
2023-04-15T01:35:09.957Z,6.72
2023-04-15T01:37:37.702Z,6.72
2023-04-15T01:40:05.566Z,6.70
2023-04-15T01:42:32.761Z,6.67
2023-04-15T01:45:00.012Z,6.67
2023-04-15T01:47:27.092Z,6.64
2023-04-15T01:49:54.322Z,6.63
2023-04-15T01:52:22.330Z,6.63
2023-04-15T01:54:49.308Z,6.63
2023-04-15T01:57:16.593Z,6.62
2023-04-15T01:59:43.746Z,6.62
2023-04-15T02:02:10.824Z,6.59
2023-04-15T02:04:38.115Z,6.54
2023-04-15T02:07:05.140Z,6.51
2023-04-15T02:09:32.102Z,6.47
2023-04-15T02:11:59.495Z,6.41
2023-04-15T02:14:27.074Z,6.39
2023-04-15T02:16:54.769Z,6.36
2023-04-15T02:19:22.095Z,6.32
2023-04-15T02:21:49.110Z,6.28
2023-04-15T02:24:18.210Z,6.24
2023-04-15T02:26:45.425Z,6.24
2023-04-15T02:29:12.375Z,6.22
2023-04-15T02:31:42.228Z,6.21
2023-04-15T02:34:09.338Z,6.19
2023-04-15T02:36:36.506Z,6.18
2023-04-15T02:39:05.596Z,6.20
2023-04-15T02:41:33.137Z,6.17
2023-04-15T02:44:00.034Z,6.17
2023-04-15T02:46:28.562Z,6.19
2023-04-15T02:48:55.598Z,6.17
2023-04-15T02:51:24.155Z,6.17
2023-04-15T02:53:51.216Z,6.18
2023-04-15T02:56:19.709Z,6.18
2023-04-15T02:58:47.357Z,6.15
2023-04-15T03:01:14.772Z,6.11
2023-04-15T03:03:42.455Z,6.11
2023-04-15T03:06:09.631Z,6.10
2023-04-15T03:08:37.428Z,6.10
2023-04-15T03:11:05.150Z,6.10
2023-04-15T03:13:36.374Z,6.12
2023-04-15T03:16:11.195Z,6.12
2023-04-15T03:18:38.792Z,6.11
2023-04-15T03:21:06.610Z,6.09
2023-04-15T03:23:36.224Z,6.06
2023-04-15T03:26:04.896Z,6.04
2023-04-15T03:28:33.808Z,6.03
2023-04-15T03:31:01.832Z,6.02
2023-04-15T03:33:28.872Z,6.04
2023-04-15T03:35:55.994Z,6.04
2023-04-15T03:38:22.951Z,6.04
2023-04-15T03:40:49.886Z,6.04
2023-04-15T03:43:17.139Z,6.02
2023-04-15T03:45:44.134Z,5.99
2023-04-15T03:48:17.905Z,5.97
2023-04-15T03:50:46.295Z,5.97
2023-04-15T03:53:13.334Z,5.96
2023-04-15T03:55:40.302Z,5.90
2023-04-15T03:58:07.354Z,5.85
2023-04-15T04:00:34.367Z,5.81
2023-04-15T04:03:01.856Z,5.75
2023-04-15T04:05:29.025Z,5.73
2023-04-15T04:07:55.992Z,5.70
2023-04-15T04:10:22.966Z,5.66
2023-04-15T04:12:49.906Z,5.61
2023-04-15T04:15:17.093Z,5.56
2023-04-15T04:17:44.165Z,5.52
2023-04-15T04:20:12.504Z,5.49
2023-04-15T04:22:41.311Z,5.46
2023-04-15T04:25:10.281Z,5.43
2023-04-15T04:27:38.083Z,5.38
2023-04-15T04:30:06.871Z,5.35
2023-04-15T04:32:33.948Z,5.32
2023-04-15T04:35:00.978Z,5.28
2023-04-15T04:37:27.983Z,5.24
2023-04-15T04:39:54.968Z,5.21
2023-04-15T04:42:22.530Z,5.21
2023-04-15T04:44:49.633Z,5.21
2023-04-15T04:47:16.627Z,5.20
2023-04-15T04:49:43.584Z,5.18
2023-04-15T04:52:10.632Z,5.17
2023-04-15T04:54:37.569Z,5.19
2023-04-15T04:57:04.525Z,5.17
2023-04-15T04:59:31.590Z,5.19
2023-04-15T05:01:58.690Z,5.18
2023-04-15T05:04:26.505Z,5.25
2023-04-15T05:06:53.528Z,5.26
2023-04-15T05:09:20.611Z,5.33
2023-04-15T05:11:47.630Z,5.43
2023-04-15T05:14:14.624Z,5.54
2023-04-15T05:16:41.649Z,5.74
2023-04-15T05:19:08.797Z,6.13
2023-04-15T05:21:37.569Z,6.72
2023-04-15T05:24:06.961Z,7.78
2023-04-15T05:26:33.970Z,8.53
2023-04-15T05:29:01.788Z,8.77
2023-04-15T05:31:29.152Z,8.62
2023-04-15T05:33:56.303Z,8.12
2023-04-15T05:36:23.383Z,7.61
2023-04-15T05:38:51.020Z,7.29
2023-04-15T05:41:19.824Z,7.10
2023-04-15T05:43:47.123Z,7.04
2023-04-15T05:46:14.248Z,7.02
2023-04-15T05:48:41.708Z,7.08
2023-04-15T05:51:09.425Z,7.14
2023-04-15T05:53:36.511Z,7.24
2023-04-15T05:56:04.072Z,7.34
2023-04-15T05:58:36.381Z,7.44
2023-04-15T06:01:06.428Z,7.52
2023-04-15T06:03:33.716Z,7.66
2023-04-15T06:06:01.452Z,7.71
2023-04-15T06:08:28.484Z,7.75
2023-04-15T06:10:55.953Z,7.83
2023-04-15T06:13:22.915Z,7.98
2023-04-15T06:15:49.980Z,8.14
2023-04-15T06:18:16.979Z,8.29
2023-04-15T06:20:49.408Z,8.43
2023-04-15T06:23:16.359Z,8.45
2023-04-15T06:25:43.503Z,8.45
2023-04-15T06:28:10.644Z,8.49
2023-04-15T06:30:38.457Z,8.49
2023-04-15T06:33:06.585Z,8.54
2023-04-15T06:35:33.647Z,8.57
2023-04-15T06:38:00.749Z,8.61
2023-04-15T06:40:28.228Z,8.64
2023-04-15T06:42:55.666Z,8.67
2023-04-15T06:45:22.796Z,8.69
2023-04-15T06:47:49.761Z,8.68
2023-04-15T06:50:16.761Z,8.70
2023-04-15T06:52:44.035Z,8.66
2023-04-15T06:55:11.394Z,8.70
2023-04-15T06:57:38.374Z,8.67
2023-04-15T07:00:06.347Z,8.64
2023-04-15T07:02:34.167Z,8.65
2023-04-15T07:05:01.680Z,8.68
2023-04-15T07:07:28.748Z,8.69
2023-04-15T07:09:55.781Z,8.73
2023-04-15T07:12:22.912Z,8.72
2023-04-15T07:14:50.102Z,8.73
2023-04-15T07:17:17.147Z,8.76
2023-04-15T07:19:44.124Z,8.80
2023-04-15T07:22:11.173Z,8.83
2023-04-15T07:24:38.117Z,8.88
2023-04-15T07:27:05.148Z,8.94
2023-04-15T07:29:32.177Z,9.00
2023-04-15T07:31:59.266Z,9.04
2023-04-15T07:34:26.378Z,9.12
2023-04-15T07:36:53.381Z,9.17
2023-04-15T07:39:20.428Z,9.28
2023-04-15T07:41:47.451Z,9.38
2023-04-15T07:44:14.693Z,9.44
2023-04-15T07:46:41.956Z,9.52
2023-04-15T07:49:09.465Z,9.61
2023-04-15T07:51:37.277Z,9.71
2023-04-15T07:54:04.363Z,9.79
2023-04-15T07:56:31.390Z,9.91
2023-04-15T07:58:58.371Z,10.01
2023-04-15T08:01:26.088Z,10.14
2023-04-15T08:03:53.459Z,10.27
2023-04-15T08:06:21.009Z,10.41
2023-04-15T08:08:48.314Z,10.59
2023-04-15T08:11:15.600Z,10.72
2023-04-15T08:13:42.851Z,10.79
2023-04-15T08:16:25.954Z,10.87
2023-04-15T08:18:55.986Z,10.89
2023-04-15T08:21:25.892Z,10.89
2023-04-15T08:23:56.578Z,10.91
2023-04-15T08:26:23.698Z,10.94
2023-04-15T08:28:51.233Z,11.03
2023-04-15T08:31:19.377Z,11.23
2023-04-15T08:33:46.820Z,11.31
2023-04-15T08:36:14.120Z,11.38
2023-04-15T08:38:41.831Z,11.41
2023-04-15T08:41:23.842Z,11.55
2023-04-15T08:43:59.166Z,11.57
2023-04-15T08:46:26.726Z,11.63
2023-04-15T08:48:58.307Z,11.68
2023-04-15T08:51:26.372Z,11.65
2023-04-15T08:53:53.527Z,11.69
2023-04-15T08:56:26.853Z,11.72
2023-04-15T08:58:54.745Z,11.83
2023-04-15T09:01:23.151Z,12.02
2023-04-15T09:03:54.681Z,12.10
2023-04-15T09:06:23.151Z,12.09
2023-04-15T09:08:51.798Z,11.96
2023-04-15T09:11:21.071Z,11.94
2023-04-15T09:13:49.245Z,12.02
2023-04-15T09:16:16.383Z,12.06
2023-04-15T09:18:43.454Z,12.06
2023-04-15T09:21:14.037Z,12.14
2023-04-15T09:23:59.853Z,12.23
2023-04-15T09:26:45.492Z,12.26
2023-04-15T09:29:13.863Z,12.46
2023-04-15T09:31:42.808Z,12.44
2023-04-15T09:34:10.046Z,12.45
2023-04-15T09:36:52.874Z,12.47
2023-04-15T09:39:20.601Z,12.48
2023-04-15T09:41:47.792Z,12.59
2023-04-15T09:44:26.295Z,12.63
2023-04-15T09:46:53.547Z,12.74
2023-04-15T09:49:21.096Z,12.92
2023-04-15T09:52:01.712Z,12.94
2023-04-15T09:54:39.184Z,13.04
2023-04-15T09:57:09.875Z,13.13
2023-04-15T09:59:37.020Z,13.30
2023-04-15T10:02:09.905Z,13.22
2023-04-15T10:04:42.033Z,13.15
2023-04-15T10:07:10.089Z,13.16
2023-04-15T10:09:39.569Z,13.10
2023-04-15T10:12:07.362Z,13.33
2023-04-15T10:14:38.613Z,13.29
2023-04-15T10:17:11.082Z,13.26
2023-04-15T10:19:38.462Z,13.18
2023-04-15T10:22:06.534Z,13.16
2023-04-15T10:24:34.308Z,13.23
2023-04-15T10:27:04.527Z,13.34
2023-04-15T10:29:31.613Z,13.59
2023-04-15T10:32:03.054Z,13.63
2023-04-15T10:34:32.353Z,13.72
2023-04-15T10:37:03.901Z,13.87
2023-04-15T10:39:37.415Z,14.01
2023-04-15T10:42:19.717Z,14.20
2023-04-15T10:44:52.390Z,14.36
2023-04-15T10:47:22.108Z,14.33
2023-04-15T10:50:00.429Z,14.29
2023-04-15T10:52:29.445Z,14.14
2023-04-15T10:55:24.175Z,14.00
2023-04-15T10:57:59.612Z,13.94
2023-04-15T11:00:32.737Z,14.07
2023-04-15T11:03:08.188Z,14.12
2023-04-15T11:05:54.290Z,14.27
2023-04-15T11:08:56.564Z,14.24
2023-04-15T11:11:23.549Z,14.38
2023-04-15T11:13:52.537Z,14.35
2023-04-15T11:16:20.058Z,14.39
2023-04-15T11:18:56.775Z,14.50
2023-04-15T11:21:28.314Z,14.68
2023-04-15T11:23:55.344Z,14.84
2023-04-15T11:26:27.396Z,14.73
2023-04-15T11:28:54.892Z,14.53
2023-04-15T11:31:23.977Z,14.32
2023-04-15T11:33:55.581Z,14.32
2023-04-15T11:36:27.941Z,14.39
2023-04-15T11:38:57.446Z,14.48
2023-04-15T11:41:24.528Z,14.31
2023-04-15T11:43:52.587Z,14.29
2023-04-15T11:46:21.425Z,14.43
2023-04-15T11:48:48.498Z,14.63
2023-04-15T11:51:15.709Z,14.91
2023-04-15T11:53:51.012Z,15.05
2023-04-15T11:56:24.134Z,15.03
2023-04-15T11:58:58.713Z,15.01
2023-04-15T12:01:46.707Z,14.95
2023-04-15T12:04:20.888Z,14.94
2023-04-15T12:06:50.329Z,14.95
2023-04-15T12:09:17.443Z,14.88
2023-04-15T12:11:55.570Z,15.09
2023-04-15T12:14:33.920Z,15.19
2023-04-15T12:17:04.911Z,15.03
2023-04-15T12:19:41.696Z,15.03
2023-04-15T12:22:17.359Z,15.05
2023-04-15T12:24:48.716Z,14.96
2023-04-15T12:27:17.665Z,14.87
2023-04-15T12:29:44.925Z,14.97
2023-04-15T12:32:22.810Z,15.02
2023-04-15T12:34:53.191Z,15.16
2023-04-15T12:37:21.046Z,15.20
2023-04-15T12:39:50.439Z,15.14
2023-04-15T12:42:18.280Z,15.25
2023-04-15T12:44:45.788Z,15.05
2023-04-15T12:47:13.445Z,15.09
2023-04-15T12:49:41.075Z,15.33
2023-04-15T12:52:08.395Z,15.29
2023-04-15T12:54:36.338Z,15.20
2023-04-15T12:57:06.839Z,15.12
2023-04-15T12:59:36.517Z,15.27
2023-04-15T13:02:04.361Z,15.53
2023-04-15T13:04:32.016Z,15.61
2023-04-15T13:06:59.215Z,15.53
2023-04-15T13:09:26.410Z,15.47
2023-04-15T13:11:54.323Z,15.43
2023-04-15T13:14:21.571Z,15.57
2023-04-15T13:16:48.761Z,15.60
2023-04-15T13:19:15.910Z,15.53
2023-04-15T13:21:43.038Z,15.52
2023-04-15T13:24:10.126Z,15.45
2023-04-15T13:26:37.784Z,15.16
2023-04-15T13:29:05.419Z,15.11
2023-04-15T13:31:32.731Z,15.15
2023-04-15T13:33:59.850Z,15.33
2023-04-15T13:36:27.371Z,15.75
2023-04-15T13:38:54.575Z,15.89
2023-04-15T13:41:21.885Z,15.90
2023-04-15T13:43:49.750Z,15.84
2023-04-15T13:46:16.947Z,15.62
2023-04-15T13:48:44.003Z,15.37
2023-04-15T13:51:11.136Z,15.19
2023-04-15T13:53:39.580Z,15.06
2023-04-15T13:56:08.400Z,15.09
2023-04-15T13:58:37.469Z,15.19
2023-04-15T14:01:07.038Z,15.23
2023-04-15T14:03:36.438Z,15.11
2023-04-15T14:06:05.721Z,14.97
2023-04-15T14:08:33.349Z,15.02
2023-04-15T14:11:01.107Z,15.12
2023-04-15T14:13:28.399Z,15.29
2023-04-15T14:15:56.860Z,15.16
2023-04-15T14:18:23.967Z,15.21
2023-04-15T14:20:51.072Z,15.30
2023-04-15T14:23:18.431Z,15.27
2023-04-15T14:25:47.897Z,15.24
2023-04-15T14:28:15.801Z,15.28
2023-04-15T14:30:42.985Z,15.26
2023-04-15T14:33:10.536Z,15.10
2023-04-15T14:35:37.997Z,14.96
2023-04-15T14:38:06.158Z,14.79
2023-04-15T14:40:34.066Z,14.60
2023-04-15T14:43:01.307Z,14.35
2023-04-15T14:45:28.516Z,14.09
2023-04-15T14:47:55.968Z,13.88
2023-04-15T14:50:23.354Z,13.68
2023-04-15T14:52:50.470Z,13.53
2023-04-15T14:55:17.476Z,13.31
2023-04-15T14:57:44.424Z,13.14
2023-04-15T15:00:15.249Z,13.00
2023-04-15T15:02:43.840Z,12.94
2023-04-15T15:05:12.111Z,12.91
2023-04-15T15:07:40.936Z,12.93
2023-04-15T15:10:08.611Z,12.99
2023-04-15T15:12:36.214Z,13.06
2023-04-15T15:15:12.169Z,13.07
2023-04-15T15:17:39.715Z,12.94
2023-04-15T15:20:07.819Z,12.94
2023-04-15T15:22:34.786Z,12.89
2023-04-15T15:25:02.167Z,12.83
2023-04-15T15:27:29.206Z,12.83
2023-04-15T15:29:56.610Z,12.76
2023-04-15T15:32:23.628Z,12.64
2023-04-15T15:34:52.591Z,12.57
2023-04-15T15:37:19.576Z,12.49
2023-04-15T15:39:47.095Z,12.40
2023-04-15T15:42:14.077Z,12.25
2023-04-15T15:44:41.221Z,12.16
2023-04-15T15:47:08.559Z,12.05
2023-04-15T15:49:35.579Z,12.00
2023-04-15T15:52:02.626Z,11.87
2023-04-15T15:54:29.790Z,11.73
2023-04-15T15:56:57.616Z,11.58
2023-04-15T15:59:28.096Z,11.54
2023-04-15T16:01:55.258Z,11.47
2023-04-15T16:04:22.508Z,11.48
2023-04-15T16:06:50.029Z,11.45
2023-04-15T16:09:18.002Z,11.42
2023-04-15T16:11:45.970Z,11.36
2023-04-15T16:14:14.097Z,11.34
2023-04-15T16:16:41.291Z,11.30
2023-04-15T16:19:08.393Z,11.28
2023-04-15T16:21:35.593Z,11.28
2023-04-15T16:24:02.978Z,11.31
2023-04-15T16:26:30.651Z,11.33
2023-04-15T16:28:57.692Z,11.30
2023-04-15T16:31:24.771Z,11.27
2023-04-15T16:33:51.801Z,11.22
2023-04-15T16:36:18.813Z,11.11
2023-04-15T16:38:48.375Z,11.07
2023-04-15T16:41:15.948Z,11.08
2023-04-15T16:43:42.928Z,11.03
2023-04-15T16:46:10.123Z,11.03
2023-04-15T16:48:37.598Z,11.06
2023-04-15T16:51:05.176Z,11.07
2023-04-15T16:53:32.259Z,10.98
2023-04-15T16:55:59.413Z,10.93
2023-04-15T16:58:27.702Z,10.92
2023-04-15T17:00:54.729Z,10.87
2023-04-15T17:03:21.894Z,10.80
2023-04-15T17:05:49.143Z,10.74
2023-04-15T17:08:16.306Z,10.68
2023-04-15T17:10:43.470Z,10.62
2023-04-15T17:13:10.613Z,10.55
2023-04-15T17:15:37.916Z,10.46
2023-04-15T17:18:05.452Z,10.37
2023-04-15T17:20:32.611Z,10.26
2023-04-15T17:23:00.410Z,10.20
2023-04-15T17:25:27.631Z,10.16
2023-04-15T17:27:55.011Z,10.10
2023-04-15T17:30:23.617Z,10.04
2023-04-15T17:32:51.976Z,10.02
2023-04-15T17:35:19.204Z,10.02
2023-04-15T17:37:46.639Z,10.00
2023-04-15T17:40:14.772Z,9.96
2023-04-15T17:42:41.946Z,9.94
2023-04-15T17:45:10.791Z,9.93
2023-04-15T17:47:37.934Z,9.87
2023-04-15T17:50:05.893Z,9.83
2023-04-15T17:52:33.053Z,9.78
2023-04-15T17:55:00.027Z,9.75
2023-04-15T17:57:27.105Z,9.73
2023-04-15T17:59:54.187Z,9.71
2023-04-15T18:02:21.386Z,9.64
2023-04-15T18:04:48.704Z,9.62
2023-04-15T18:07:16.060Z,9.61
2023-04-15T18:09:44.305Z,9.54
2023-04-15T18:12:11.695Z,9.50
2023-04-15T18:14:39.148Z,9.44
2023-04-15T18:17:07.226Z,9.38
2023-04-15T18:19:34.298Z,9.36
2023-04-15T18:22:01.392Z,9.33
2023-04-15T18:24:30.909Z,9.29
2023-04-15T18:26:59.279Z,9.26
2023-04-15T18:29:26.498Z,9.23
2023-04-15T18:31:53.829Z,9.27
2023-04-15T18:34:20.884Z,9.19
2023-04-15T18:36:47.987Z,9.14
2023-04-15T18:39:15.570Z,9.11
2023-04-15T18:41:42.601Z,9.06
2023-04-15T18:44:09.673Z,8.99
2023-04-15T18:46:36.745Z,8.92
2023-04-15T18:49:04.351Z,8.85
2023-04-15T18:51:32.640Z,8.81
2023-04-15T18:53:59.684Z,8.76
2023-04-15T18:56:26.742Z,8.68
2023-04-15T18:59:28.516Z,8.64
2023-04-15T19:01:41.051Z,8.62
2023-04-15T19:04:08.414Z,8.59
2023-04-15T19:06:36.240Z,8.54
2023-04-15T19:09:03.373Z,8.52
2023-04-15T19:11:31.249Z,8.49
2023-04-15T19:13:58.210Z,8.41
2023-04-15T19:16:25.181Z,8.34
2023-04-15T19:18:52.248Z,8.33
2023-04-15T19:21:19.435Z,8.29
2023-04-15T19:23:47.477Z,8.25
2023-04-15T19:26:14.484Z,8.20
2023-04-15T19:28:41.626Z,8.19
2023-04-15T19:31:08.664Z,8.15
2023-04-15T19:33:35.708Z,8.14
2023-04-15T19:36:06.225Z,8.12
2023-04-15T19:38:37.813Z,8.08
2023-04-15T19:41:04.824Z,8.10
2023-04-15T19:43:32.826Z,8.08
2023-04-15T19:46:00.088Z,8.12
2023-04-15T19:48:27.290Z,8.12
2023-04-15T19:50:54.351Z,8.10
2023-04-15T19:53:21.330Z,8.07
2023-04-15T19:55:48.816Z,8.08
2023-04-15T19:58:16.153Z,8.09
2023-04-15T20:00:43.229Z,8.10
2023-04-15T20:03:10.593Z,8.12
2023-04-15T20:05:37.708Z,8.11
2023-04-15T20:08:04.861Z,8.13
2023-04-15T20:10:31.997Z,8.18
2023-04-15T20:12:59.257Z,8.23
2023-04-15T20:15:26.393Z,8.23
2023-04-15T20:17:53.538Z,8.26
2023-04-15T20:20:21.112Z,8.26
2023-04-15T20:22:48.770Z,8.28
2023-04-15T20:25:15.848Z,8.28
2023-04-15T20:27:42.886Z,8.31
2023-04-15T20:30:10.612Z,8.33
2023-04-15T20:32:38.626Z,8.35
2023-04-15T20:35:07.004Z,8.36
2023-04-15T20:37:34.948Z,8.37
2023-04-15T20:40:02.428Z,8.39
2023-04-15T20:42:36.984Z,8.40
2023-04-15T20:45:04.489Z,8.39
2023-04-15T20:47:31.524Z,8.41
2023-04-15T20:49:58.589Z,8.42
2023-04-15T20:52:25.598Z,8.42
2023-04-15T20:54:52.573Z,8.44
2023-04-15T20:57:20.392Z,8.45
2023-04-15T20:59:47.457Z,8.46
2023-04-15T21:02:14.550Z,8.47
2023-04-15T21:04:41.633Z,8.45
2023-04-15T21:07:09.871Z,8.46
2023-04-15T21:09:38.402Z,8.46
2023-04-15T21:12:05.477Z,8.43
2023-04-15T21:14:32.503Z,8.41
2023-04-15T21:16:59.653Z,8.38
2023-04-15T21:19:26.740Z,8.33
2023-04-15T21:21:53.691Z,8.34
2023-04-15T21:24:20.769Z,8.31
2023-04-15T21:26:47.801Z,8.31
2023-04-15T21:29:14.931Z,8.29
2023-04-15T21:31:42.247Z,8.31
2023-04-15T21:34:10.009Z,8.27
2023-04-15T21:36:38.399Z,8.24
2023-04-15T21:39:06.213Z,8.18
2023-04-15T21:41:33.363Z,8.12
2023-04-15T21:44:00.352Z,8.14
2023-04-15T21:46:32.611Z,8.12
2023-04-15T21:49:00.518Z,8.18
2023-04-15T21:51:27.757Z,8.21
2023-04-15T21:53:54.893Z,8.23
2023-04-15T21:56:24.124Z,8.26
2023-04-15T21:58:56.955Z,8.26
2023-04-15T22:01:24.966Z,8.27
2023-04-15T22:03:53.087Z,8.28
2023-04-15T22:06:20.452Z,8.27
2023-04-15T22:08:56.683Z,8.27
2023-04-15T22:11:29.590Z,8.31
2023-04-15T22:13:57.856Z,8.31
2023-04-15T22:16:26.529Z,8.31
2023-04-15T22:18:54.822Z,8.34
2023-04-15T22:21:22.198Z,8.34
2023-04-15T22:23:49.666Z,8.30
2023-04-15T22:26:16.825Z,8.31
2023-04-15T22:28:43.753Z,8.26
2023-04-15T22:31:11.064Z,8.26
2023-04-15T22:33:38.828Z,8.26
2023-04-15T22:36:06.234Z,8.23
2023-04-15T22:38:33.453Z,8.27
2023-04-15T22:41:00.398Z,8.25
2023-04-15T22:43:27.769Z,8.26
2023-04-15T22:45:55.225Z,8.26
2023-04-15T22:48:23.127Z,8.24
2023-04-15T22:50:50.548Z,8.26
2023-04-15T22:53:18.123Z,8.26
2023-04-15T22:55:47.105Z,8.24
2023-04-15T22:58:15.839Z,8.26
2023-04-15T23:00:42.891Z,8.22
2023-04-15T23:03:10.932Z,8.19
2023-04-15T23:05:40.007Z,8.19
2023-04-15T23:08:08.172Z,8.22
2023-04-15T23:10:35.477Z,8.22
2023-04-15T23:13:02.430Z,8.22
2023-04-15T23:15:29.393Z,8.19
2023-04-15T23:17:56.398Z,8.22
2023-04-15T23:20:23.415Z,8.22
2023-04-15T23:22:50.469Z,8.23
2023-04-15T23:25:17.506Z,8.23
2023-04-15T23:27:44.536Z,8.23
2023-04-15T23:30:11.612Z,8.24
2023-04-15T23:32:38.752Z,8.24
2023-04-15T23:35:06.149Z,8.24
2023-04-15T23:37:33.224Z,8.23
2023-04-15T23:40:00.233Z,8.22
2023-04-15T23:42:27.251Z,8.22
2023-04-15T23:44:54.317Z,8.22
2023-04-15T23:47:21.866Z,8.26
2023-04-15T23:49:48.793Z,8.24
2023-04-15T23:52:15.952Z,8.21
2023-04-15T23:54:42.979Z,8.22
2023-04-15T23:57:10.065Z,8.25
2023-04-15T23:59:37.108Z,8.23
